sensor_id;sensor_type;location;lat;lon;timestamp;pressure;altitude;pressure_sealevel;temperature;humidity
69848;BME280;57143;55.940;37.496;2022-12-16T00:00:40;97615.91;;;-3.22;100.00
69848;BME280;57143;55.940;37.496;2022-12-16T00:03:07;97609.97;;;-3.24;100.00
69848;BME280;57143;55.940;37.496;2022-12-16T00:05:34;97602.47;;;-3.21;100.00
69848;BME280;57143;55.940;37.496;2022-12-16T00:08:05;97585.31;;;-3.25;100.00
69848;BME280;57143;55.940;37.496;2022-12-16T00:10:32;97594.66;;;-3.14;100.00
69848;BME280;57143;55.940;37.496;2022-12-16T00:13:17;97598.66;;;-3.18;100.00
69848;BME280;57143;55.940;37.496;2022-12-16T00:15:45;97602.13;;;-3.18;100.00
69848;BME280;57143;55.940;37.496;2022-12-16T00:18:12;97585.97;;;-3.23;100.00
69848;BME280;57143;55.940;37.496;2022-12-16T00:20:43;97589.22;;;-3.21;100.00
69848;BME280;57143;55.940;37.496;2022-12-16T00:23:13;97596.84;;;-3.18;100.00
69848;BME280;57143;55.940;37.496;2022-12-16T00:25:41;97575.44;;;-3.31;100.00
69848;BME280;57143;55.940;37.496;2022-12-16T00:28:09;97587.03;;;-3.17;100.00
69848;BME280;57143;55.940;37.496;2022-12-16T00:30:36;97577.00;;;-3.07;100.00
69848;BME280;57143;55.940;37.496;2022-12-16T00:33:04;97586.50;;;-3.13;100.00
69848;BME280;57143;55.940;37.496;2022-12-16T00:35:31;97572.25;;;-3.12;100.00
69848;BME280;57143;55.940;37.496;2022-12-16T00:37:59;97561.00;;;-3.14;100.00
69848;BME280;57143;55.940;37.496;2022-12-16T00:40:27;97563.19;;;-3.17;100.00
69848;BME280;57143;55.940;37.496;2022-12-16T00:42:54;97574.97;;;-3.05;100.00
69848;BME280;57143;55.940;37.496;2022-12-16T00:45:21;97582.31;;;-3.07;100.00
69848;BME280;57143;55.940;37.496;2022-12-16T00:47:49;97582.66;;;-3.10;100.00
69848;BME280;57143;55.940;37.496;2022-12-16T00:50:16;97579.81;;;-3.09;100.00
69848;BME280;57143;55.940;37.496;2022-12-16T00:52:45;97573.91;;;-3.11;100.00
69848;BME280;57143;55.940;37.496;2022-12-16T00:55:13;97577.16;;;-3.09;100.00
69848;BME280;57143;55.940;37.496;2022-12-16T00:57:42;97568.34;;;-3.16;100.00
69848;BME280;57143;55.940;37.496;2022-12-16T01:00:11;97585.13;;;-3.09;100.00
69848;BME280;57143;55.940;37.496;2022-12-16T01:02:39;97590.59;;;-3.10;100.00
69848;BME280;57143;55.940;37.496;2022-12-16T01:05:07;97561.13;;;-3.22;100.00
69848;BME280;57143;55.940;37.496;2022-12-16T01:07:35;97562.38;;;-3.03;100.00
69848;BME280;57143;55.940;37.496;2022-12-16T01:10:03;97573.78;;;-3.03;100.00
69848;BME280;57143;55.940;37.496;2022-12-16T01:12:31;97570.69;;;-3.06;100.00
69848;BME280;57143;55.940;37.496;2022-12-16T01:15:00;97561.00;;;-2.99;100.00
69848;BME280;57143;55.940;37.496;2022-12-16T01:17:30;97568.75;;;-2.98;100.00
69848;BME280;57143;55.940;37.496;2022-12-16T01:19:57;97564.94;;;-2.95;100.00
69848;BME280;57143;55.940;37.496;2022-12-16T01:22:25;97569.47;;;-2.89;100.00
69848;BME280;57143;55.940;37.496;2022-12-16T01:24:55;97559.06;;;-2.91;100.00
69848;BME280;57143;55.940;37.496;2022-12-16T01:27:22;97546.66;;;-2.90;100.00
69848;BME280;57143;55.940;37.496;2022-12-16T01:29:50;97562.56;;;-2.90;100.00
69848;BME280;57143;55.940;37.496;2022-12-16T01:32:19;97563.00;;;-2.87;100.00
69848;BME280;57143;55.940;37.496;2022-12-16T01:34:48;97546.66;;;-2.90;100.00
69848;BME280;57143;55.940;37.496;2022-12-16T01:37:17;97555.75;;;-2.78;100.00
69848;BME280;57143;55.940;37.496;2022-12-16T01:39:45;97554.19;;;-2.73;100.00
69848;BME280;57143;55.940;37.496;2022-12-16T01:42:13;97540.78;;;-2.86;100.00
69848;BME280;57143;55.940;37.496;2022-12-16T01:44:41;97543.06;;;-2.83;100.00
69848;BME280;57143;55.940;37.496;2022-12-16T01:47:14;97547.09;;;-2.87;100.00
69848;BME280;57143;55.940;37.496;2022-12-16T01:49:46;97554.75;;;-2.77;100.00
69848;BME280;57143;55.940;37.496;2022-12-16T01:52:17;97554.63;;;-2.69;100.00
69848;BME280;57143;55.940;37.496;2022-12-16T01:54:49;97547.50;;;-2.69;100.00
69848;BME280;57143;55.940;37.496;2022-12-16T01:57:22;97558.94;;;-2.68;100.00
69848;BME280;57143;55.940;37.496;2022-12-16T01:59:53;97554.47;;;-2.68;100.00
69848;BME280;57143;55.940;37.496;2022-12-16T02:02:21;97554.00;;;-2.71;100.00
69848;BME280;57143;55.940;37.496;2022-12-16T02:04:50;97540.44;;;-2.62;100.00
69848;BME280;57143;55.940;37.496;2022-12-16T02:07:34;97550.84;;;-2.60;100.00
69848;BME280;57143;55.940;37.496;2022-12-16T02:10:02;97544.75;;;-2.61;100.00
69848;BME280;57143;55.940;37.496;2022-12-16T02:12:35;97544.19;;;-2.56;100.00
69848;BME280;57143;55.940;37.496;2022-12-16T02:15:13;97552.25;;;-2.64;100.00
69848;BME280;57143;55.940;37.496;2022-12-16T02:17:50;97559.44;;;-2.58;100.00
69848;BME280;57143;55.940;37.496;2022-12-16T02:26:56;97544.44;;;-2.51;100.00
69848;BME280;57143;55.940;37.496;2022-12-16T02:29:43;97503.94;;;-2.81;100.00
69848;BME280;57143;55.940;37.496;2022-12-16T02:32:24;97508.75;;;-2.70;100.00
69848;BME280;57143;55.940;37.496;2022-12-16T02:34:58;97500.59;;;-2.68;100.00
69848;BME280;57143;55.940;37.496;2022-12-16T02:37:38;97535.75;;;-2.45;100.00
69848;BME280;57143;55.940;37.496;2022-12-16T02:40:14;97534.28;;;-2.48;100.00
69848;BME280;57143;55.940;37.496;2022-12-16T02:42:47;97540.22;;;-2.46;100.00
69848;BME280;57143;55.940;37.496;2022-12-16T02:45:17;97531.31;;;-2.59;100.00
69848;BME280;57143;55.940;37.496;2022-12-16T02:47:47;97528.66;;;-2.59;100.00
69848;BME280;57143;55.940;37.496;2022-12-16T02:50:17;97537.13;;;-2.49;100.00
69848;BME280;57143;55.940;37.496;2022-12-16T02:52:47;97537.75;;;-2.47;100.00
69848;BME280;57143;55.940;37.496;2022-12-16T02:55:15;97544.75;;;-2.40;100.00
69848;BME280;57143;55.940;37.496;2022-12-16T02:57:56;97545.06;;;-2.49;100.00
69848;BME280;57143;55.940;37.496;2022-12-16T03:00:29;97548.81;;;-2.44;100.00
69848;BME280;57143;55.940;37.496;2022-12-16T03:03:06;97534.31;;;-2.41;100.00
69848;BME280;57143;55.940;37.496;2022-12-16T03:05:37;97561.88;;;-2.42;100.00
69848;BME280;57143;55.940;37.496;2022-12-16T03:08:09;97508.94;;;-2.50;100.00
69848;BME280;57143;55.940;37.496;2022-12-16T03:10:41;97540.06;;;-2.38;100.00
69848;BME280;57143;55.940;37.496;2022-12-16T03:13:10;97514.50;;;-2.66;100.00
69848;BME280;57143;55.940;37.496;2022-12-16T03:15:40;97536.03;;;-2.33;100.00
69848;BME280;57143;55.940;37.496;2022-12-16T03:18:12;97523.59;;;-2.54;100.00
69848;BME280;57143;55.940;37.496;2022-12-16T03:20:42;97497.50;;;-2.72;100.00
69848;BME280;57143;55.940;37.496;2022-12-16T03:23:16;97540.53;;;-2.34;100.00
69848;BME280;57143;55.940;37.496;2022-12-16T03:25:47;97533.94;;;-2.38;100.00
69848;BME280;57143;55.940;37.496;2022-12-16T03:28:30;97541.53;;;-2.35;100.00
69848;BME280;57143;55.940;37.496;2022-12-16T03:31:06;97536.94;;;-2.26;100.00
69848;BME280;57143;55.940;37.496;2022-12-16T03:33:43;97530.94;;;-2.35;100.00
69848;BME280;57143;55.940;37.496;2022-12-16T03:36:16;97495.81;;;-2.58;100.00
69848;BME280;57143;55.940;37.496;2022-12-16T03:38:46;97531.44;;;-2.25;100.00
69848;BME280;57143;55.940;37.496;2022-12-16T03:41:15;97530.59;;;-2.25;100.00
69848;BME280;57143;55.940;37.496;2022-12-16T03:43:43;97535.16;;;-2.19;100.00
69848;BME280;57143;55.940;37.496;2022-12-16T03:46:10;97521.81;;;-2.26;100.00
69848;BME280;57143;55.940;37.496;2022-12-16T03:48:46;97528.84;;;-2.18;100.00
69848;BME280;57143;55.940;37.496;2022-12-16T03:51:14;97540.22;;;-2.24;100.00
69848;BME280;57143;55.940;37.496;2022-12-16T03:53:41;97526.44;;;-2.35;100.00
69848;BME280;57143;55.940;37.496;2022-12-16T03:56:09;97537.47;;;-2.31;100.00
69848;BME280;57143;55.940;37.496;2022-12-16T03:58:36;97549.13;;;-2.32;100.00
69848;BME280;57143;55.940;37.496;2022-12-16T04:01:05;97546.91;;;-2.28;100.00
69848;BME280;57143;55.940;37.496;2022-12-16T04:03:32;97549.50;;;-2.35;100.00
69848;BME280;57143;55.940;37.496;2022-12-16T04:06:01;97552.72;;;-2.18;100.00
69848;BME280;57143;55.940;37.496;2022-12-16T04:08:28;97557.03;;;-2.17;100.00
69848;BME280;57143;55.940;37.496;2022-12-16T04:10:55;97559.28;;;-2.14;100.00
69848;BME280;57143;55.940;37.496;2022-12-16T04:13:40;97574.97;;;-2.19;100.00
69848;BME280;57143;55.940;37.496;2022-12-16T04:16:26;97573.53;;;-2.15;100.00
69848;BME280;57143;55.940;37.496;2022-12-16T04:19:21;97582.72;;;-2.18;100.00
69848;BME280;57143;55.940;37.496;2022-12-16T04:22:11;97571.91;;;-2.16;100.00
69848;BME280;57143;55.940;37.496;2022-12-16T04:25:00;97580.81;;;-2.03;100.00
69848;BME280;57143;55.940;37.496;2022-12-16T04:27:28;97584.06;;;-2.07;100.00
69848;BME280;57143;55.940;37.496;2022-12-16T04:29:56;97598.31;;;-2.08;100.00
69848;BME280;57143;55.940;37.496;2022-12-16T04:32:40;97587.19;;;-2.18;100.00
69848;BME280;57143;55.940;37.496;2022-12-16T04:35:25;97599.63;;;-2.19;100.00
69848;BME280;57143;55.940;37.496;2022-12-16T04:38:11;97615.38;;;-2.17;100.00
69848;BME280;57143;55.940;37.496;2022-12-16T04:40:55;97600.16;;;-2.09;100.00
69848;BME280;57143;55.940;37.496;2022-12-16T04:43:39;97609.19;;;-2.03;100.00
69848;BME280;57143;55.940;37.496;2022-12-16T04:46:23;97614.13;;;-2.00;100.00
69848;BME280;57143;55.940;37.496;2022-12-16T04:49:08;97622.63;;;-2.05;100.00
69848;BME280;57143;55.940;37.496;2022-12-16T04:51:52;97642.34;;;-2.14;100.00
69848;BME280;57143;55.940;37.496;2022-12-16T04:54:38;97643.41;;;-2.08;100.00
69848;BME280;57143;55.940;37.496;2022-12-16T04:57:22;97647.47;;;-2.12;100.00
69848;BME280;57143;55.940;37.496;2022-12-16T05:00:08;97658.25;;;-2.14;100.00
69848;BME280;57143;55.940;37.496;2022-12-16T05:02:53;97653.59;;;-2.12;100.00
69848;BME280;57143;55.940;37.496;2022-12-16T05:05:38;97666.13;;;-2.06;100.00
69848;BME280;57143;55.940;37.496;2022-12-16T05:08:22;97670.78;;;-2.08;100.00
69848;BME280;57143;55.940;37.496;2022-12-16T05:11:08;97685.16;;;-2.17;100.00
69848;BME280;57143;55.940;37.496;2022-12-16T05:13:52;97699.34;;;-2.10;100.00
69848;BME280;57143;55.940;37.496;2022-12-16T05:16:36;97684.78;;;-2.14;100.00
69848;BME280;57143;55.940;37.496;2022-12-16T05:19:20;97715.84;;;-2.14;100.00
69848;BME280;57143;55.940;37.496;2022-12-16T05:22:05;97717.47;;;-2.13;100.00
69848;BME280;57143;55.940;37.496;2022-12-16T05:24:50;97719.75;;;-2.10;100.00
69848;BME280;57143;55.940;37.496;2022-12-16T05:27:35;97721.31;;;-2.16;100.00
69848;BME280;57143;55.940;37.496;2022-12-16T05:30:20;97731.38;;;-2.11;100.00
69848;BME280;57143;55.940;37.496;2022-12-16T05:33:04;97735.59;;;-2.17;100.00
69848;BME280;57143;55.940;37.496;2022-12-16T05:35:48;97727.53;;;-2.09;100.00
69848;BME280;57143;55.940;37.496;2022-12-16T05:38:32;97752.47;;;-2.03;100.00
69848;BME280;57143;55.940;37.496;2022-12-16T05:41:17;97765.03;;;-2.12;100.00
69848;BME280;57143;55.940;37.496;2022-12-16T05:44:03;97780.03;;;-2.04;100.00
69848;BME280;57143;55.940;37.496;2022-12-16T05:46:47;97781.53;;;-2.16;100.00
69848;BME280;57143;55.940;37.496;2022-12-16T05:49:32;97810.16;;;-2.12;100.00
69848;BME280;57143;55.940;37.496;2022-12-16T05:52:16;97816.94;;;-2.09;100.00
69848;BME280;57143;55.940;37.496;2022-12-16T05:55:00;97804.31;;;-2.22;100.00
69848;BME280;57143;55.940;37.496;2022-12-16T05:57:48;97837.97;;;-2.08;100.00
69848;BME280;57143;55.940;37.496;2022-12-16T06:00:30;97848.03;;;-2.03;100.00
69848;BME280;57143;55.940;37.496;2022-12-16T06:03:15;97850.06;;;-2.05;100.00
69848;BME280;57143;55.940;37.496;2022-12-16T06:05:59;97858.03;;;-2.05;100.00
69848;BME280;57143;55.940;37.496;2022-12-16T06:08:44;97863.94;;;-2.03;100.00
69848;BME280;57143;55.940;37.496;2022-12-16T06:11:28;97877.50;;;-2.13;100.00
69848;BME280;57143;55.940;37.496;2022-12-16T06:14:27;97895.06;;;-2.12;100.00
69848;BME280;57143;55.940;37.496;2022-12-16T06:17:13;97899.81;;;-2.22;100.00
69848;BME280;57143;55.940;37.496;2022-12-16T06:19:57;97925.97;;;-2.19;100.00
69848;BME280;57143;55.940;37.496;2022-12-16T06:22:42;97918.03;;;-2.19;100.00
69848;BME280;57143;55.940;37.496;2022-12-16T06:25:27;97922.72;;;-2.21;100.00
69848;BME280;57143;55.940;37.496;2022-12-16T06:28:16;97957.72;;;-2.25;100.00
69848;BME280;57143;55.940;37.496;2022-12-16T06:31:01;97955.81;;;-2.31;100.00
69848;BME280;57143;55.940;37.496;2022-12-16T06:33:47;97942.97;;;-2.43;100.00
69848;BME280;57143;55.940;37.496;2022-12-16T06:36:31;97981.53;;;-2.17;100.00
69848;BME280;57143;55.940;37.496;2022-12-16T06:39:15;97979.53;;;-2.38;100.00
69848;BME280;57143;55.940;37.496;2022-12-16T06:42:00;98011.84;;;-2.35;100.00
69848;BME280;57143;55.940;37.496;2022-12-16T06:44:43;98026.13;;;-2.36;100.00
69848;BME280;57143;55.940;37.496;2022-12-16T06:47:29;98045.63;;;-2.51;100.00
69848;BME280;57143;55.940;37.496;2022-12-16T06:50:15;98065.34;;;-2.54;100.00
69848;BME280;57143;55.940;37.496;2022-12-16T06:53:00;98079.72;;;-2.40;100.00
69848;BME280;57143;55.940;37.496;2022-12-16T06:55:44;98095.16;;;-2.44;100.00
69848;BME280;57143;55.940;37.496;2022-12-16T06:58:34;98099.75;;;-2.38;100.00
69848;BME280;57143;55.940;37.496;2022-12-16T07:01:18;98119.72;;;-2.50;100.00
69848;BME280;57143;55.940;37.496;2022-12-16T07:04:03;98136.75;;;-2.44;100.00
69848;BME280;57143;55.940;37.496;2022-12-16T07:06:49;98146.28;;;-2.58;100.00
69848;BME280;57143;55.940;37.496;2022-12-16T07:09:33;98168.59;;;-2.44;100.00
69848;BME280;57143;55.940;37.496;2022-12-16T07:12:17;98183.84;;;-2.46;100.00
69848;BME280;57143;55.940;37.496;2022-12-16T07:15:02;98203.59;;;-2.49;100.00
69848;BME280;57143;55.940;37.496;2022-12-16T07:17:46;98222.97;;;-2.48;100.00
69848;BME280;57143;55.940;37.496;2022-12-16T07:20:31;98226.81;;;-2.51;100.00
69848;BME280;57143;55.940;37.496;2022-12-16T07:23:16;98256.44;;;-2.39;100.00
69848;BME280;57143;55.940;37.496;2022-12-16T07:26:01;98236.78;;;-2.69;100.00
69848;BME280;57143;55.940;37.496;2022-12-16T07:28:45;98301.22;;;-2.44;100.00
69848;BME280;57143;55.940;37.496;2022-12-16T07:31:30;98304.88;;;-2.53;100.00
69848;BME280;57143;55.940;37.496;2022-12-16T07:34:14;98332.09;;;-2.59;100.00
69848;BME280;57143;55.940;37.496;2022-12-16T07:36:59;98346.81;;;-2.57;100.00
69848;BME280;57143;55.940;37.496;2022-12-16T07:39:44;98357.75;;;-2.60;100.00
69848;BME280;57143;55.940;37.496;2022-12-16T07:42:29;98358.09;;;-2.55;100.00
69848;BME280;57143;55.940;37.496;2022-12-16T07:45:14;98387.41;;;-2.40;100.00
69848;BME280;57143;55.940;37.496;2022-12-16T07:47:59;98407.63;;;-2.55;100.00
69848;BME280;57143;55.940;37.496;2022-12-16T07:50:43;98402.19;;;-2.46;100.00
69848;BME280;57143;55.940;37.496;2022-12-16T07:53:28;98404.81;;;-2.46;100.00
69848;BME280;57143;55.940;37.496;2022-12-16T07:56:14;98414.94;;;-2.41;100.00
69848;BME280;57143;55.940;37.496;2022-12-16T07:58:58;98426.38;;;-2.49;100.00
69848;BME280;57143;55.940;37.496;2022-12-16T08:01:43;98445.91;;;-2.42;100.00
69848;BME280;57143;55.940;37.496;2022-12-16T08:04:28;98447.91;;;-2.36;100.00
69848;BME280;57143;55.940;37.496;2022-12-16T08:07:12;98470.13;;;-2.53;100.00
69848;BME280;57143;55.940;37.496;2022-12-16T08:09:53;98475.44;;;-2.53;100.00
69848;BME280;57143;55.940;37.496;2022-12-16T08:12:40;98484.22;;;-2.60;100.00
69848;BME280;57143;55.940;37.496;2022-12-16T08:15:24;98484.38;;;-2.62;100.00
69848;BME280;57143;55.940;37.496;2022-12-16T08:18:09;98506.28;;;-2.68;100.00
69848;BME280;57143;55.940;37.496;2022-12-16T08:20:53;98506.28;;;-2.52;100.00
69848;BME280;57143;55.940;37.496;2022-12-16T08:23:52;98512.75;;;-2.46;100.00
69848;BME280;57143;55.940;37.496;2022-12-16T08:26:37;98509.75;;;-2.51;100.00
69848;BME280;57143;55.940;37.496;2022-12-16T08:29:22;98504.94;;;-2.64;100.00
69848;BME280;57143;55.940;37.496;2022-12-16T08:32:07;98535.44;;;-2.68;100.00
69848;BME280;57143;55.940;37.496;2022-12-16T08:34:51;98536.63;;;-2.54;100.00
69848;BME280;57143;55.940;37.496;2022-12-16T08:37:36;98543.06;;;-2.73;100.00
69848;BME280;57143;55.940;37.496;2022-12-16T08:40:21;98570.88;;;-2.69;100.00
69848;BME280;57143;55.940;37.496;2022-12-16T08:43:05;98582.34;;;-2.60;100.00
69848;BME280;57143;55.940;37.496;2022-12-16T08:45:52;98562.91;;;-2.77;100.00
69848;BME280;57143;55.940;37.496;2022-12-16T08:48:37;98586.97;;;-2.62;100.00
69848;BME280;57143;55.940;37.496;2022-12-16T08:51:22;98580.34;;;-2.66;100.00
69848;BME280;57143;55.940;37.496;2022-12-16T08:54:06;98601.22;;;-2.63;100.00
69848;BME280;57143;55.940;37.496;2022-12-16T08:56:51;98609.88;;;-2.61;100.00
69848;BME280;57143;55.940;37.496;2022-12-16T08:59:35;98604.06;;;-2.65;100.00
69848;BME280;57143;55.940;37.496;2022-12-16T09:02:21;98622.63;;;-2.57;100.00
69848;BME280;57143;55.940;37.496;2022-12-16T09:05:06;98640.69;;;-2.60;100.00
69848;BME280;57143;55.940;37.496;2022-12-16T09:07:51;98659.06;;;-2.67;100.00
69848;BME280;57143;55.940;37.496;2022-12-16T09:10:35;98666.91;;;-2.57;100.00
69848;BME280;57143;55.940;37.496;2022-12-16T09:13:20;98680.47;;;-2.60;100.00
69848;BME280;57143;55.940;37.496;2022-12-16T09:16:05;98701.75;;;-2.78;100.00
69848;BME280;57143;55.940;37.496;2022-12-16T09:18:51;98696.16;;;-2.75;100.00
69848;BME280;57143;55.940;37.496;2022-12-16T09:21:35;98694.31;;;-2.74;100.00
69848;BME280;57143;55.940;37.496;2022-12-16T09:24:20;98701.50;;;-2.67;100.00
69848;BME280;57143;55.940;37.496;2022-12-16T09:27:04;98723.72;;;-2.68;100.00
69848;BME280;57143;55.940;37.496;2022-12-16T09:29:48;98722.34;;;-2.72;100.00
69848;BME280;57143;55.940;37.496;2022-12-16T09:32:33;98749.63;;;-2.79;100.00
69848;BME280;57143;55.940;37.496;2022-12-16T09:35:18;98721.13;;;-2.85;100.00
69848;BME280;57143;55.940;37.496;2022-12-16T09:38:03;98719.69;;;-2.72;100.00
69848;BME280;57143;55.940;37.496;2022-12-16T09:40:47;98699.84;;;-2.68;100.00
69848;BME280;57143;55.940;37.496;2022-12-16T09:43:55;98713.31;;;-2.53;100.00
69848;BME280;57143;55.940;37.496;2022-12-16T09:46:46;98705.72;;;-2.48;100.00
69848;BME280;57143;55.940;37.496;2022-12-16T09:49:44;98701.69;;;-2.60;100.00
69848;BME280;57143;55.940;37.496;2022-12-16T09:52:34;98725.25;;;-2.57;100.00
69848;BME280;57143;55.940;37.496;2022-12-16T09:55:23;98714.78;;;-2.59;100.00
69848;BME280;57143;55.940;37.496;2022-12-16T09:58:10;98737.88;;;-2.85;100.00
69848;BME280;57143;55.940;37.496;2022-12-16T10:00:56;98737.66;;;-2.58;100.00
69848;BME280;57143;55.940;37.496;2022-12-16T10:03:41;98751.38;;;-2.62;100.00
69848;BME280;57143;55.940;37.496;2022-12-16T10:06:40;98697.31;;;-3.03;100.00
69848;BME280;57143;55.940;37.496;2022-12-16T10:09:31;98789.03;;;-2.59;100.00
69848;BME280;57143;55.940;37.496;2022-12-16T10:12:26;98783.88;;;-2.60;100.00
69848;BME280;57143;55.940;37.496;2022-12-16T10:15:26;98796.22;;;-2.51;100.00
69848;BME280;57143;55.940;37.496;2022-12-16T10:18:23;98747.28;;;-2.90;100.00
69848;BME280;57143;55.940;37.496;2022-12-16T10:21:15;98757.56;;;-2.87;100.00
69848;BME280;57143;55.940;37.496;2022-12-16T10:24:06;98812.88;;;-2.67;100.00
69848;BME280;57143;55.940;37.496;2022-12-16T10:26:58;98838.66;;;-2.51;100.00
69848;BME280;57143;55.940;37.496;2022-12-16T10:29:45;98819.81;;;-2.66;100.00
69848;BME280;57143;55.940;37.496;2022-12-16T10:32:33;98768.16;;;-3.13;100.00
69848;BME280;57143;55.940;37.496;2022-12-16T10:35:23;98829.66;;;-2.58;100.00
69848;BME280;57143;55.940;37.496;2022-12-16T10:38:24;98838.34;;;-2.48;100.00
69848;BME280;57143;55.940;37.496;2022-12-16T10:41:12;98828.47;;;-2.64;100.00
69848;BME280;57143;55.940;37.496;2022-12-16T10:43:59;98834.44;;;-2.62;100.00
69848;BME280;57143;55.940;37.496;2022-12-16T10:46:44;98856.41;;;-2.69;100.00
69848;BME280;57143;55.940;37.496;2022-12-16T10:49:28;98872.22;;;-2.68;100.00
69848;BME280;57143;55.940;37.496;2022-12-16T10:52:13;98890.34;;;-2.55;100.00
69848;BME280;57143;55.940;37.496;2022-12-16T10:55:03;98895.22;;;-2.68;100.00
69848;BME280;57143;55.940;37.496;2022-12-16T10:57:57;98878.28;;;-2.75;100.00
69848;BME280;57143;55.940;37.496;2022-12-16T11:00:47;98922.13;;;-2.81;100.00
69848;BME280;57143;55.940;37.496;2022-12-16T11:03:33;98939.09;;;-2.91;100.00
69848;BME280;57143;55.940;37.496;2022-12-16T11:06:21;98906.84;;;-3.04;100.00
69848;BME280;57143;55.940;37.496;2022-12-16T11:09:21;98934.69;;;-2.83;100.00
69848;BME280;57143;55.940;37.496;2022-12-16T11:12:23;98902.28;;;-3.29;100.00
69848;BME280;57143;55.940;37.496;2022-12-16T11:15:19;98944.78;;;-2.86;100.00
69848;BME280;57143;55.940;37.496;2022-12-16T11:18:15;98962.88;;;-2.99;100.00
69848;BME280;57143;55.940;37.496;2022-12-16T11:21:07;98950.91;;;-3.03;100.00
69848;BME280;57143;55.940;37.496;2022-12-16T11:24:14;98966.75;;;-3.11;100.00
69848;BME280;57143;55.940;37.496;2022-12-16T11:27:00;98980.97;;;-2.95;100.00
69848;BME280;57143;55.940;37.496;2022-12-16T11:29:53;98981.50;;;-2.91;100.00
69848;BME280;57143;55.940;37.496;2022-12-16T11:32:41;98954.94;;;-2.99;100.00
69848;BME280;57143;55.940;37.496;2022-12-16T11:35:29;98999.59;;;-3.04;100.00
69848;BME280;57143;55.940;37.496;2022-12-16T11:38:20;99007.03;;;-3.08;100.00
69848;BME280;57143;55.940;37.496;2022-12-16T11:41:06;99012.50;;;-2.92;100.00
69848;BME280;57143;55.940;37.496;2022-12-16T11:43:53;99012.91;;;-2.87;100.00
69848;BME280;57143;55.940;37.496;2022-12-16T11:46:38;99000.97;;;-2.83;100.00
69848;BME280;57143;55.940;37.496;2022-12-16T11:49:27;99034.53;;;-2.91;100.00
69848;BME280;57143;55.940;37.496;2022-12-16T11:52:17;99029.59;;;-3.04;100.00
69848;BME280;57143;55.940;37.496;2022-12-16T11:55:11;99024.31;;;-3.04;100.00
69848;BME280;57143;55.940;37.496;2022-12-16T11:58:03;99045.97;;;-2.91;100.00
69848;BME280;57143;55.940;37.496;2022-12-16T12:00:56;99057.84;;;-2.95;100.00
69848;BME280;57143;55.940;37.496;2022-12-16T12:03:42;99063.84;;;-2.93;100.00
69848;BME280;57143;55.940;37.496;2022-12-16T12:06:33;99027.09;;;-3.32;100.00
69848;BME280;57143;55.940;37.496;2022-12-16T12:09:24;99019.94;;;-3.49;100.00
69848;BME280;57143;55.940;37.496;2022-12-16T12:12:17;99043.47;;;-3.46;100.00
69848;BME280;57143;55.940;37.496;2022-12-16T12:15:16;99085.06;;;-3.20;100.00
69848;BME280;57143;55.940;37.496;2022-12-16T12:18:07;99097.03;;;-3.16;100.00
69848;BME280;57143;55.940;37.496;2022-12-16T12:20:59;99044.63;;;-3.22;100.00
69848;BME280;57143;55.940;37.496;2022-12-16T12:23:52;99066.59;;;-3.12;100.00
69848;BME280;57143;55.940;37.496;2022-12-16T12:26:58;99033.66;;;-3.36;100.00
69848;BME280;57143;55.940;37.496;2022-12-16T12:29:54;99083.50;;;-3.13;100.00
69848;BME280;57143;55.940;37.496;2022-12-16T12:32:51;99065.28;;;-3.25;100.00
69848;BME280;57143;55.940;37.496;2022-12-16T12:35:47;99080.16;;;-3.15;100.00
69848;BME280;57143;55.940;37.496;2022-12-16T12:38:40;99081.00;;;-3.14;100.00
69848;BME280;57143;55.940;37.496;2022-12-16T12:41:27;99058.00;;;-3.23;100.00
69848;BME280;57143;55.940;37.496;2022-12-16T12:44:20;99080.53;;;-3.10;100.00
69848;BME280;57143;55.940;37.496;2022-12-16T12:47:11;99069.38;;;-3.04;100.00
69848;BME280;57143;55.940;37.496;2022-12-16T12:49:59;99073.59;;;-3.11;100.00
69848;BME280;57143;55.940;37.496;2022-12-16T12:53:13;99079.84;;;-3.12;100.00
69848;BME280;57143;55.940;37.496;2022-12-16T12:56:06;99049.44;;;-3.35;100.00
69848;BME280;57143;55.940;37.496;2022-12-16T12:58:54;99067.56;;;-3.40;100.00
69848;BME280;57143;55.940;37.496;2022-12-16T13:01:45;99084.97;;;-3.28;100.00
69848;BME280;57143;55.940;37.496;2022-12-16T13:04:41;99077.97;;;-3.29;100.00
69848;BME280;57143;55.940;37.496;2022-12-16T13:07:27;99078.97;;;-3.30;100.00
69848;BME280;57143;55.940;37.496;2022-12-16T13:10:31;99073.94;;;-3.33;100.00
69848;BME280;57143;55.940;37.496;2022-12-16T13:13:33;99076.84;;;-3.26;100.00
69848;BME280;57143;55.940;37.496;2022-12-16T13:19:52;99084.19;;;-3.57;100.00
69848;BME280;57143;55.940;37.496;2022-12-16T13:22:37;99093.09;;;-3.48;100.00
69848;BME280;57143;55.940;37.496;2022-12-16T13:25:38;99088.47;;;-3.37;100.00
69848;BME280;57143;55.940;37.496;2022-12-16T13:28:26;99097.50;;;-3.30;100.00
69848;BME280;57143;55.940;37.496;2022-12-16T13:31:11;99097.13;;;-3.35;100.00
69848;BME280;57143;55.940;37.496;2022-12-16T13:34:02;99081.00;;;-3.51;100.00
69848;BME280;57143;55.940;37.496;2022-12-16T13:36:54;99110.00;;;-3.69;100.00
69848;BME280;57143;55.940;37.496;2022-12-16T13:39:41;99113.22;;;-3.56;100.00
69848;BME280;57143;55.940;37.496;2022-12-16T13:45:36;99133.09;;;-3.52;100.00
69848;BME280;57143;55.940;37.496;2022-12-16T13:48:33;99111.97;;;-3.71;100.00
69848;BME280;57143;55.940;37.496;2022-12-16T13:51:57;99140.09;;;-3.60;100.00
69848;BME280;57143;55.940;37.496;2022-12-16T13:54:48;99107.94;;;-3.75;100.00
69848;BME280;57143;55.940;37.496;2022-12-16T13:57:36;99079.00;;;-3.95;100.00
69848;BME280;57143;55.940;37.496;2022-12-16T14:00:25;99140.25;;;-3.52;100.00
69848;BME280;57143;55.940;37.496;2022-12-16T14:03:14;99080.09;;;-3.79;100.00
69848;BME280;57143;55.940;37.496;2022-12-16T14:06:03;99145.94;;;-3.57;100.00
69848;BME280;57143;55.940;37.496;2022-12-16T14:08:53;99143.88;;;-3.63;100.00
69848;BME280;57143;55.940;37.496;2022-12-16T14:11:45;99136.19;;;-3.66;100.00